sensor_id;sensor_type;location;lat;lon;timestamp;temperature;humidity
4374;DHT22;2201;51.100;6.814;2023-07-13T00:02:21;18.50;86.50
4374;DHT22;2201;51.100;6.814;2023-07-13T00:04:48;18.50;87.10
4374;DHT22;2201;51.100;6.814;2023-07-13T00:07:15;18.40;86.80
4374;DHT22;2201;51.100;6.814;2023-07-13T00:09:45;18.40;86.80
4374;DHT22;2201;51.100;6.814;2023-07-13T00:12:24;18.40;86.90
4374;DHT22;2201;51.100;6.814;2023-07-13T00:14:52;18.30;87.00
4374;DHT22;2201;51.100;6.814;2023-07-13T00:17:18;18.30;87.30
4374;DHT22;2201;51.100;6.814;2023-07-13T00:19:45;18.20;87.70
4374;DHT22;2201;51.100;6.814;2023-07-13T00:22:12;18.20;87.60
4374;DHT22;2201;51.100;6.814;2023-07-13T00:24:39;18.20;87.60
4374;DHT22;2201;51.100;6.814;2023-07-13T00:27:07;18.20;87.80
4374;DHT22;2201;51.100;6.814;2023-07-13T00:29:36;18.20;87.50
4374;DHT22;2201;51.100;6.814;2023-07-13T00:32:03;18.20;88.00
4374;DHT22;2201;51.100;6.814;2023-07-13T00:34:31;18.20;87.70
4374;DHT22;2201;51.100;6.814;2023-07-13T00:36:58;18.20;87.70
4374;DHT22;2201;51.100;6.814;2023-07-13T00:39:25;18.20;87.90
4374;DHT22;2201;51.100;6.814;2023-07-13T00:41:52;18.10;88.00
4374;DHT22;2201;51.100;6.814;2023-07-13T00:44:20;18.00;88.30
4374;DHT22;2201;51.100;6.814;2023-07-13T00:46:50;18.00;88.70
4374;DHT22;2201;51.100;6.814;2023-07-13T00:49:20;18.00;88.80
4374;DHT22;2201;51.100;6.814;2023-07-13T00:51:50;17.90;88.80
4374;DHT22;2201;51.100;6.814;2023-07-13T00:54:22;17.90;88.90
4374;DHT22;2201;51.100;6.814;2023-07-13T00:56:52;17.80;89.10
4374;DHT22;2201;51.100;6.814;2023-07-13T00:59:21;17.80;89.40
4374;DHT22;2201;51.100;6.814;2023-07-13T01:01:49;17.80;89.80
4374;DHT22;2201;51.100;6.814;2023-07-13T01:04:17;17.70;90.00
4374;DHT22;2201;51.100;6.814;2023-07-13T01:06:44;17.70;90.20
4374;DHT22;2201;51.100;6.814;2023-07-13T01:09:13;17.70;90.20
4374;DHT22;2201;51.100;6.814;2023-07-13T01:11:41;17.70;89.80
4374;DHT22;2201;51.100;6.814;2023-07-13T01:14:08;17.70;90.50
4374;DHT22;2201;51.100;6.814;2023-07-13T01:16:36;17.60;91.30
4374;DHT22;2201;51.100;6.814;2023-07-13T01:19:15;17.60;90.50
4374;DHT22;2201;51.100;6.814;2023-07-13T01:21:50;17.60;90.70
4374;DHT22;2201;51.100;6.814;2023-07-13T01:24:17;17.50;91.80
4374;DHT22;2201;51.100;6.814;2023-07-13T01:26:43;17.50;91.40
4374;DHT22;2201;51.100;6.814;2023-07-13T01:29:10;17.50;91.00
4374;DHT22;2201;51.100;6.814;2023-07-13T01:31:37;17.50;91.70
4374;DHT22;2201;51.100;6.814;2023-07-13T01:34:04;17.40;91.30
4374;DHT22;2201;51.100;6.814;2023-07-13T01:36:31;17.50;91.60
4374;DHT22;2201;51.100;6.814;2023-07-13T01:38:59;17.40;91.50
4374;DHT22;2201;51.100;6.814;2023-07-13T01:41:26;17.50;91.30
4374;DHT22;2201;51.100;6.814;2023-07-13T01:43:53;17.40;91.20
4374;DHT22;2201;51.100;6.814;2023-07-13T01:46:20;17.40;91.30
4374;DHT22;2201;51.100;6.814;2023-07-13T01:48:47;17.40;91.60
4374;DHT22;2201;51.100;6.814;2023-07-13T01:51:13;17.40;91.40
4374;DHT22;2201;51.100;6.814;2023-07-13T01:53:40;17.40;91.50
4374;DHT22;2201;51.100;6.814;2023-07-13T01:56:08;17.40;91.40
4374;DHT22;2201;51.100;6.814;2023-07-13T01:58:35;17.40;91.90
4374;DHT22;2201;51.100;6.814;2023-07-13T02:01:02;17.40;91.50
4374;DHT22;2201;51.100;6.814;2023-07-13T02:03:28;17.40;91.40
4374;DHT22;2201;51.100;6.814;2023-07-13T02:05:55;17.30;91.70
4374;DHT22;2201;51.100;6.814;2023-07-13T02:08:22;17.30;91.90
4374;DHT22;2201;51.100;6.814;2023-07-13T02:10:49;17.30;92.40
4374;DHT22;2201;51.100;6.814;2023-07-13T02:13:17;17.30;92.50
4374;DHT22;2201;51.100;6.814;2023-07-13T02:15:44;17.20;92.80
4374;DHT22;2201;51.100;6.814;2023-07-13T02:18:10;17.20;93.20
4374;DHT22;2201;51.100;6.814;2023-07-13T02:20:42;17.20;92.40
4374;DHT22;2201;51.100;6.814;2023-07-13T02:23:09;17.20;93.00
4374;DHT22;2201;51.100;6.814;2023-07-13T02:25:36;17.20;92.80
4374;DHT22;2201;51.100;6.814;2023-07-13T02:28:03;17.20;93.10
4374;DHT22;2201;51.100;6.814;2023-07-13T02:30:31;17.20;93.00
4374;DHT22;2201;51.100;6.814;2023-07-13T02:32:58;17.20;93.30
4374;DHT22;2201;51.100;6.814;2023-07-13T02:35:24;17.10;93.20
4374;DHT22;2201;51.100;6.814;2023-07-13T02:37:51;17.10;93.30
4374;DHT22;2201;51.100;6.814;2023-07-13T02:40:18;17.10;93.30
4374;DHT22;2201;51.100;6.814;2023-07-13T02:42:45;17.20;93.30
4374;DHT22;2201;51.100;6.814;2023-07-13T02:45:12;17.10;93.40
4374;DHT22;2201;51.100;6.814;2023-07-13T02:47:41;17.10;93.40
4374;DHT22;2201;51.100;6.814;2023-07-13T02:50:09;17.10;93.70
4374;DHT22;2201;51.100;6.814;2023-07-13T02:52:36;17.10;93.40
4374;DHT22;2201;51.100;6.814;2023-07-13T02:55:03;17.00;93.70
4374;DHT22;2201;51.100;6.814;2023-07-13T02:57:30;17.00;93.70
4374;DHT22;2201;51.100;6.814;2023-07-13T02:59:58;17.00;93.70
4374;DHT22;2201;51.100;6.814;2023-07-13T03:02:25;17.00;94.10
4374;DHT22;2201;51.100;6.814;2023-07-13T03:04:54;17.00;94.00
4374;DHT22;2201;51.100;6.814;2023-07-13T03:07:21;16.90;94.00
4374;DHT22;2201;51.100;6.814;2023-07-13T03:09:48;16.90;94.20
4374;DHT22;2201;51.100;6.814;2023-07-13T03:12:15;16.90;93.80
4374;DHT22;2201;51.100;6.814;2023-07-13T03:14:42;16.90;94.10
4374;DHT22;2201;51.100;6.814;2023-07-13T03:17:08;16.90;94.20
4374;DHT22;2201;51.100;6.814;2023-07-13T03:19:35;16.90;94.10
4374;DHT22;2201;51.100;6.814;2023-07-13T03:22:04;16.80;93.80
4374;DHT22;2201;51.100;6.814;2023-07-13T03:24:32;16.90;94.10
4374;DHT22;2201;51.100;6.814;2023-07-13T03:27:01;16.80;94.40
4374;DHT22;2201;51.100;6.814;2023-07-13T03:29:28;16.80;94.20
4374;DHT22;2201;51.100;6.814;2023-07-13T03:31:54;16.80;94.10
4374;DHT22;2201;51.100;6.814;2023-07-13T03:34:21;16.80;94.90
4374;DHT22;2201;51.100;6.814;2023-07-13T03:36:48;16.80;94.70
4374;DHT22;2201;51.100;6.814;2023-07-13T03:39:16;16.80;94.40
4374;DHT22;2201;51.100;6.814;2023-07-13T03:41:42;16.80;94.80
4374;DHT22;2201;51.100;6.814;2023-07-13T03:44:09;16.70;94.50
4374;DHT22;2201;51.100;6.814;2023-07-13T03:46:36;16.70;95.00
4374;DHT22;2201;51.100;6.814;2023-07-13T03:49:04;16.70;94.80
4374;DHT22;2201;51.100;6.814;2023-07-13T03:51:31;16.70;94.60
4374;DHT22;2201;51.100;6.814;2023-07-13T03:53:58;16.70;94.90
4374;DHT22;2201;51.100;6.814;2023-07-13T03:56:26;16.70;94.50
4374;DHT22;2201;51.100;6.814;2023-07-13T03:58:53;16.60;95.00
4374;DHT22;2201;51.100;6.814;2023-07-13T04:01:21;16.60;95.40
4374;DHT22;2201;51.100;6.814;2023-07-13T04:03:49;16.60;95.00
4374;DHT22;2201;51.100;6.814;2023-07-13T04:06:19;16.60;95.40
4374;DHT22;2201;51.100;6.814;2023-07-13T04:08:48;16.60;95.10
4374;DHT22;2201;51.100;6.814;2023-07-13T04:11:16;16.60;95.10
4374;DHT22;2201;51.100;6.814;2023-07-13T04:13:45;16.60;95.60
4374;DHT22;2201;51.100;6.814;2023-07-13T04:16:12;16.60;95.20
4374;DHT22;2201;51.100;6.814;2023-07-13T04:18:39;16.60;95.20
4374;DHT22;2201;51.100;6.814;2023-07-13T04:21:07;16.60;95.40
4374;DHT22;2201;51.100;6.814;2023-07-13T04:23:34;16.60;96.00
4374;DHT22;2201;51.100;6.814;2023-07-13T04:26:01;16.60;96.10
4374;DHT22;2201;51.100;6.814;2023-07-13T04:28:27;16.60;96.10
4374;DHT22;2201;51.100;6.814;2023-07-13T04:30:56;16.60;96.10
4374;DHT22;2201;51.100;6.814;2023-07-13T04:33:23;16.60;96.20
4374;DHT22;2201;51.100;6.814;2023-07-13T04:35:50;16.70;96.40
4374;DHT22;2201;51.100;6.814;2023-07-13T04:38:20;16.70;96.50
4374;DHT22;2201;51.100;6.814;2023-07-13T04:40:47;16.70;96.00
4374;DHT22;2201;51.100;6.814;2023-07-13T04:43:14;16.80;96.60
4374;DHT22;2201;51.100;6.814;2023-07-13T04:45:41;16.80;96.60
4374;DHT22;2201;51.100;6.814;2023-07-13T04:48:10;16.80;96.20
4374;DHT22;2201;51.100;6.814;2023-07-13T04:50:37;16.90;96.90
4374;DHT22;2201;51.100;6.814;2023-07-13T04:53:03;16.90;96.90
4374;DHT22;2201;51.100;6.814;2023-07-13T04:55:31;17.00;97.00
4374;DHT22;2201;51.100;6.814;2023-07-13T04:57:58;17.10;97.30
4374;DHT22;2201;51.100;6.814;2023-07-13T05:00:26;17.20;97.00
4374;DHT22;2201;51.100;6.814;2023-07-13T05:02:54;17.30;97.00
4374;DHT22;2201;51.100;6.814;2023-07-13T05:05:22;17.50;96.80
4374;DHT22;2201;51.100;6.814;2023-07-13T05:07:48;17.70;96.90
4374;DHT22;2201;51.100;6.814;2023-07-13T05:10:18;17.80;96.70
4374;DHT22;2201;51.100;6.814;2023-07-13T05:12:45;18.00;96.60
4374;DHT22;2201;51.100;6.814;2023-07-13T05:15:12;18.00;96.00
4374;DHT22;2201;51.100;6.814;2023-07-13T05:17:42;18.20;96.20
4374;DHT22;2201;51.100;6.814;2023-07-13T05:20:09;18.40;95.50
4374;DHT22;2201;51.100;6.814;2023-07-13T05:22:38;18.50;94.90
4374;DHT22;2201;51.100;6.814;2023-07-13T05:25:05;18.70;95.00
4374;DHT22;2201;51.100;6.814;2023-07-13T05:27:33;18.90;94.60
4374;DHT22;2201;51.100;6.814;2023-07-13T05:30:00;19.00;94.50
4374;DHT22;2201;51.100;6.814;2023-07-13T05:32:27;19.20;93.70
4374;DHT22;2201;51.100;6.814;2023-07-13T05:34:54;19.40;93.80
4374;DHT22;2201;51.100;6.814;2023-07-13T05:37:21;19.50;93.00
4374;DHT22;2201;51.100;6.814;2023-07-13T05:39:49;19.70;93.00
4374;DHT22;2201;51.100;6.814;2023-07-13T05:42:16;19.80;92.30
4374;DHT22;2201;51.100;6.814;2023-07-13T05:44:44;19.90;92.40
4374;DHT22;2201;51.100;6.814;2023-07-13T05:47:11;19.90;92.20
4374;DHT22;2201;51.100;6.814;2023-07-13T05:49:39;19.80;92.10
4374;DHT22;2201;51.100;6.814;2023-07-13T05:52:07;19.80;92.50
4374;DHT22;2201;51.100;6.814;2023-07-13T05:54:35;19.90;92.40
4374;DHT22;2201;51.100;6.814;2023-07-13T05:57:04;19.90;92.80
4374;DHT22;2201;51.100;6.814;2023-07-13T05:59:31;19.90;92.70
4374;DHT22;2201;51.100;6.814;2023-07-13T06:01:57;19.90;92.70
4374;DHT22;2201;51.100;6.814;2023-07-13T06:04:25;20.00;92.60
4374;DHT22;2201;51.100;6.814;2023-07-13T06:06:52;20.00;92.30
4374;DHT22;2201;51.100;6.814;2023-07-13T06:09:19;19.90;92.50
4374;DHT22;2201;51.100;6.814;2023-07-13T06:11:52;19.80;92.80
4374;DHT22;2201;51.100;6.814;2023-07-13T06:14:20;19.70;93.00
4374;DHT22;2201;51.100;6.814;2023-07-13T06:16:50;19.60;93.60
4374;DHT22;2201;51.100;6.814;2023-07-13T06:19:17;19.60;94.30
4374;DHT22;2201;51.100;6.814;2023-07-13T06:21:44;19.60;94.60
4374;DHT22;2201;51.100;6.814;2023-07-13T06:24:11;19.60;95.10
4374;DHT22;2201;51.100;6.814;2023-07-13T06:26:38;19.80;94.80
4374;DHT22;2201;51.100;6.814;2023-07-13T06:29:04;20.00;94.30
4374;DHT22;2201;51.100;6.814;2023-07-13T06:31:33;20.10;93.80
4374;DHT22;2201;51.100;6.814;2023-07-13T06:34:00;20.20;93.40
4374;DHT22;2201;51.100;6.814;2023-07-13T06:36:36;20.40;93.90
4374;DHT22;2201;51.100;6.814;2023-07-13T06:39:06;20.70;92.80
4374;DHT22;2201;51.100;6.814;2023-07-13T06:41:34;20.90;92.10
4374;DHT22;2201;51.100;6.814;2023-07-13T06:44:01;21.10;91.30
4374;DHT22;2201;51.100;6.814;2023-07-13T06:46:28;21.30;91.00
4374;DHT22;2201;51.100;6.814;2023-07-13T06:48:57;21.60;90.40
4374;DHT22;2201;51.100;6.814;2023-07-13T06:51:24;21.90;90.50
4374;DHT22;2201;51.100;6.814;2023-07-13T06:53:51;22.20;89.20
4374;DHT22;2201;51.100;6.814;2023-07-13T06:56:18;22.50;87.90
4374;DHT22;2201;51.100;6.814;2023-07-13T06:58:48;22.60;87.30
4374;DHT22;2201;51.100;6.814;2023-07-13T07:01:52;22.50;87.30
4374;DHT22;2201;51.100;6.814;2023-07-13T07:04:32;22.50;87.80
4374;DHT22;2201;51.100;6.814;2023-07-13T07:06:59;22.50;87.60
4374;DHT22;2201;51.100;6.814;2023-07-13T07:09:26;22.40;87.80
4374;DHT22;2201;51.100;6.814;2023-07-13T07:11:57;22.30;87.80
4374;DHT22;2201;51.100;6.814;2023-07-13T07:14:24;22.30;88.10
4374;DHT22;2201;51.100;6.814;2023-07-13T07:16:52;22.20;87.80
4374;DHT22;2201;51.100;6.814;2023-07-13T07:19:19;22.00;88.40
4374;DHT22;2201;51.100;6.814;2023-07-13T07:21:50;21.90;88.60
4374;DHT22;2201;51.100;6.814;2023-07-13T07:24:17;21.80;89.10
4374;DHT22;2201;51.100;6.814;2023-07-13T07:26:50;21.80;88.80
4374;DHT22;2201;51.100;6.814;2023-07-13T07:29:19;21.80;89.20
4374;DHT22;2201;51.100;6.814;2023-07-13T07:31:46;21.60;89.30
4374;DHT22;2201;51.100;6.814;2023-07-13T07:34:13;21.50;89.70
4374;DHT22;2201;51.100;6.814;2023-07-13T07:36:53;21.40;90.00
4374;DHT22;2201;51.100;6.814;2023-07-13T07:39:21;21.30;90.40
4374;DHT22;2201;51.100;6.814;2023-07-13T07:41:48;21.30;91.00
4374;DHT22;2201;51.100;6.814;2023-07-13T07:46:55;21.50;90.50
4374;DHT22;2201;51.100;6.814;2023-07-13T07:49:31;21.50;90.20
4374;DHT22;2201;51.100;6.814;2023-07-13T07:52:06;21.70;90.10
4374;DHT22;2201;51.100;6.814;2023-07-13T07:55:01;21.90;90.00
4374;DHT22;2201;51.100;6.814;2023-07-13T07:57:47;22.20;89.30
4374;DHT22;2201;51.100;6.814;2023-07-13T08:00:38;22.60;89.10
4374;DHT22;2201;51.100;6.814;2023-07-13T08:03:28;23.10;88.00
4374;DHT22;2201;51.100;6.814;2023-07-13T08:06:00;23.50;86.80
4374;DHT22;2201;51.100;6.814;2023-07-13T08:08:29;23.80;85.30
4374;DHT22;2201;51.100;6.814;2023-07-13T08:11:06;24.00;84.90
4374;DHT22;2201;51.100;6.814;2023-07-13T08:13:34;24.10;84.40
4374;DHT22;2201;51.100;6.814;2023-07-13T08:16:05;24.10;84.10
4374;DHT22;2201;51.100;6.814;2023-07-13T08:18:53;24.00;84.00
4374;DHT22;2201;51.100;6.814;2023-07-13T08:21:20;23.90;84.10
4374;DHT22;2201;51.100;6.814;2023-07-13T08:23:49;23.80;84.60
4374;DHT22;2201;51.100;6.814;2023-07-13T08:26:15;23.90;85.10
4374;DHT22;2201;51.100;6.814;2023-07-13T08:28:47;23.90;84.70
4374;DHT22;2201;51.100;6.814;2023-07-13T08:31:14;24.00;85.10
4374;DHT22;2201;51.100;6.814;2023-07-13T08:33:44;24.10;84.50
4374;DHT22;2201;51.100;6.814;2023-07-13T08:36:11;24.20;84.60
4374;DHT22;2201;51.100;6.814;2023-07-13T08:38:39;24.20;84.50
4374;DHT22;2201;51.100;6.814;2023-07-13T08:41:21;24.20;84.50
4374;DHT22;2201;51.100;6.814;2023-07-13T08:43:59;24.20;84.70
4374;DHT22;2201;51.100;6.814;2023-07-13T08:46:34;24.30;84.30
4374;DHT22;2201;51.100;6.814;2023-07-13T08:49:25;24.20;84.70
4374;DHT22;2201;51.100;6.814;2023-07-13T08:51:57;24.20;84.20
4374;DHT22;2201;51.100;6.814;2023-07-13T08:54:30;24.20;84.20
4374;DHT22;2201;51.100;6.814;2023-07-13T08:57:02;24.30;84.10
4374;DHT22;2201;51.100;6.814;2023-07-13T08:59:33;24.30;83.90
4374;DHT22;2201;51.100;6.814;2023-07-13T09:02:20;24.40;83.90
4374;DHT22;2201;51.100;6.814;2023-07-13T09:05:04;24.40;83.20
4374;DHT22;2201;51.100;6.814;2023-07-13T09:08:10;24.30;83.50
4374;DHT22;2201;51.100;6.814;2023-07-13T09:10:44;24.40;83.40
4374;DHT22;2201;51.100;6.814;2023-07-13T09:13:25;24.40;83.40
4374;DHT22;2201;51.100;6.814;2023-07-13T09:16:02;24.50;83.60
4374;DHT22;2201;51.100;6.814;2023-07-13T09:18:35;24.50;83.10
4374;DHT22;2201;51.100;6.814;2023-07-13T09:21:04;24.50;83.00
4374;DHT22;2201;51.100;6.814;2023-07-13T09:23:48;24.50;82.70
4374;DHT22;2201;51.100;6.814;2023-07-13T09:26:21;24.50;82.20
4374;DHT22;2201;51.100;6.814;2023-07-13T09:28:59;24.60;82.60
4374;DHT22;2201;51.100;6.814;2023-07-13T09:31:37;24.60;82.50
4374;DHT22;2201;51.100;6.814;2023-07-13T09:34:09;24.60;82.00
4374;DHT22;2201;51.100;6.814;2023-07-13T09:36:37;24.60;82.00
4374;DHT22;2201;51.100;6.814;2023-07-13T09:39:24;24.70;81.80
4374;DHT22;2201;51.100;6.814;2023-07-13T09:42:03;24.90;81.60
4374;DHT22;2201;51.100;6.814;2023-07-13T09:44:52;25.00;80.70
4374;DHT22;2201;51.100;6.814;2023-07-13T09:47:26;25.10;79.90
4374;DHT22;2201;51.100;6.814;2023-07-13T09:49:56;25.10;80.20
4374;DHT22;2201;51.100;6.814;2023-07-13T09:52:24;25.10;79.50
4374;DHT22;2201;51.100;6.814;2023-07-13T09:54:53;25.20;79.60
4374;DHT22;2201;51.100;6.814;2023-07-13T09:57:25;25.20;79.60
4374;DHT22;2201;51.100;6.814;2023-07-13T09:59:55;25.20;79.50
4374;DHT22;2201;51.100;6.814;2023-07-13T10:02:27;25.20;79.20
4374;DHT22;2201;51.100;6.814;2023-07-13T10:04:58;25.20;79.20
4374;DHT22;2201;51.100;6.814;2023-07-13T10:07:29;25.10;79.50
4374;DHT22;2201;51.100;6.814;2023-07-13T10:09:57;25.20;79.40
4374;DHT22;2201;51.100;6.814;2023-07-13T10:12:27;25.30;78.90
4374;DHT22;2201;51.100;6.814;2023-07-13T10:14:57;25.40;77.90
4374;DHT22;2201;51.100;6.814;2023-07-13T10:17:29;25.40;78.90
4374;DHT22;2201;51.100;6.814;2023-07-13T10:20:01;25.50;78.20
4374;DHT22;2201;51.100;6.814;2023-07-13T10:22:40;25.60;77.90
4374;DHT22;2201;51.100;6.814;2023-07-13T10:25:16;25.70;78.00
4374;DHT22;2201;51.100;6.814;2023-07-13T10:27:53;25.90;77.40
4374;DHT22;2201;51.100;6.814;2023-07-13T10:30:27;26.00;77.40
4374;DHT22;2201;51.100;6.814;2023-07-13T10:32:59;26.10;77.30
4374;DHT22;2201;51.100;6.814;2023-07-13T10:35:28;26.20;76.30
4374;DHT22;2201;51.100;6.814;2023-07-13T10:37:58;26.20;76.10
4374;DHT22;2201;51.100;6.814;2023-07-13T10:40:42;26.20;75.70
4374;DHT22;2201;51.100;6.814;2023-07-13T10:43:17;26.20;75.50
4374;DHT22;2201;51.100;6.814;2023-07-13T10:45:48;26.20;75.70
4374;DHT22;2201;51.100;6.814;2023-07-13T10:48:21;26.20;75.40
4374;DHT22;2201;51.100;6.814;2023-07-13T10:50:55;26.20;75.80
4374;DHT22;2201;51.100;6.814;2023-07-13T10:53:29;26.30;75.90
4374;DHT22;2201;51.100;6.814;2023-07-13T10:55:59;26.40;75.80
4374;DHT22;2201;51.100;6.814;2023-07-13T10:58:31;26.40;75.30
4374;DHT22;2201;51.100;6.814;2023-07-13T11:01:03;26.40;75.00
4374;DHT22;2201;51.100;6.814;2023-07-13T11:03:54;26.40;75.20
4374;DHT22;2201;51.100;6.814;2023-07-13T11:06:36;26.30;74.70
4374;DHT22;2201;51.100;6.814;2023-07-13T11:09:38;26.20;75.80
4374;DHT22;2201;51.100;6.814;2023-07-13T11:13:55;26.00;75.80
4374;DHT22;2201;51.100;6.814;2023-07-13T11:16:12;26.00;75.80
4374;DHT22;2201;51.100;6.814;2023-07-13T11:19:23;25.90;76.30
4374;DHT22;2201;51.100;6.814;2023-07-13T11:22:16;25.90;75.70
4374;DHT22;2201;51.100;6.814;2023-07-13T11:24:57;25.80;76.40
4374;DHT22;2201;51.100;6.814;2023-07-13T11:27:38;25.90;76.70
4374;DHT22;2201;51.100;6.814;2023-07-13T11:30:25;25.70;75.80
4374;DHT22;2201;51.100;6.814;2023-07-13T11:33:12;25.70;76.00
4374;DHT22;2201;51.100;6.814;2023-07-13T11:35:57;25.60;76.10
4374;DHT22;2201;51.100;6.814;2023-07-13T11:38:34;25.40;76.80
4374;DHT22;2201;51.100;6.814;2023-07-13T11:41:10;25.30;77.00
4374;DHT22;2201;51.100;6.814;2023-07-13T11:43:40;25.20;77.20
4374;DHT22;2201;51.100;6.814;2023-07-13T11:46:15;25.30;77.90
4374;DHT22;2201;51.100;6.814;2023-07-13T11:48:47;25.30;77.70
4374;DHT22;2201;51.100;6.814;2023-07-13T11:51:20;25.40;75.90
4374;DHT22;2201;51.100;6.814;2023-07-13T11:53:50;25.40;76.30
4374;DHT22;2201;51.100;6.814;2023-07-13T11:56:17;25.40;77.00
4374;DHT22;2201;51.100;6.814;2023-07-13T11:58:48;25.70;76.80
4374;DHT22;2201;51.100;6.814;2023-07-13T12:01:20;26.20;75.80
4374;DHT22;2201;51.100;6.814;2023-07-13T12:03:53;26.50;75.40
4374;DHT22;2201;51.100;6.814;2023-07-13T12:06:25;26.70;73.90
4374;DHT22;2201;51.100;6.814;2023-07-13T12:08:56;26.90;73.70
4374;DHT22;2201;51.100;6.814;2023-07-13T12:11:24;27.30;72.80
4374;DHT22;2201;51.100;6.814;2023-07-13T12:13:51;27.60;71.20
4374;DHT22;2201;51.100;6.814;2023-07-13T12:16:25;27.60;71.00
4374;DHT22;2201;51.100;6.814;2023-07-13T12:18:56;27.80;70.80
4374;DHT22;2201;51.100;6.814;2023-07-13T12:21:38;27.90;69.90
4374;DHT22;2201;51.100;6.814;2023-07-13T12:24:14;27.90;69.50
4374;DHT22;2201;51.100;6.814;2023-07-13T12:26:46;28.20;69.30
4374;DHT22;2201;51.100;6.814;2023-07-13T12:29:17;28.40;68.60
4374;DHT22;2201;51.100;6.814;2023-07-13T12:31:46;28.60;67.60
4374;DHT22;2201;51.100;6.814;2023-07-13T12:34:16;28.90;67.60
4374;DHT22;2201;51.100;6.814;2023-07-13T12:36:58;29.20;67.60
4374;DHT22;2201;51.100;6.814;2023-07-13T12:39:28;29.50;66.40
4374;DHT22;2201;51.100;6.814;2023-07-13T12:42:16;29.80;65.40
4374;DHT22;2201;51.100;6.814;2023-07-13T12:44:45;30.10;65.50
4374;DHT22;2201;51.100;6.814;2023-07-13T12:47:14;30.20;64.80
4374;DHT22;2201;51.100;6.814;2023-07-13T12:49:50;30.20;65.10
4374;DHT22;2201;51.100;6.814;2023-07-13T12:52:21;30.20;65.70
4374;DHT22;2201;51.100;6.814;2023-07-13T12:54:56;30.00;64.70
4374;DHT22;2201;51.100;6.814;2023-07-13T12:57:23;30.00;65.40
4374;DHT22;2201;51.100;6.814;2023-07-13T12:59:52;30.20;64.30
4374;DHT22;2201;51.100;6.814;2023-07-13T13:02:29;30.40;64.30
4374;DHT22;2201;51.100;6.814;2023-07-13T13:04:58;30.50;63.60
4374;DHT22;2201;51.100;6.814;2023-07-13T13:07:29;30.60;61.50
4374;DHT22;2201;51.100;6.814;2023-07-13T13:09:56;30.70;61.80
4374;DHT22;2201;51.100;6.814;2023-07-13T13:12:23;30.70;63.10
4374;DHT22;2201;51.100;6.814;2023-07-13T13:14:52;30.30;62.50
4374;DHT22;2201;51.100;6.814;2023-07-13T13:17:21;30.30;63.40
4374;DHT22;2201;51.100;6.814;2023-07-13T13:19:49;30.30;63.20
4374;DHT22;2201;51.100;6.814;2023-07-13T13:25:22;30.40;63.00
4374;DHT22;2201;51.100;6.814;2023-07-13T13:27:49;30.30;63.90
4374;DHT22;2201;51.100;6.814;2023-07-13T13:30:23;30.40;63.00
4374;DHT22;2201;51.100;6.814;2023-07-13T13:32:50;30.40;62.80
4374;DHT22;2201;51.100;6.814;2023-07-13T13:35:19;30.50;62.80
4374;DHT22;2201;51.100;6.814;2023-07-13T13:37:47;30.40;62.20
4374;DHT22;2201;51.100;6.814;2023-07-13T13:40:22;30.00;62.60
4374;DHT22;2201;51.100;6.814;2023-07-13T13:42:49;29.70;63.30
4374;DHT22;2201;51.100;6.814;2023-07-13T13:45:18;29.30;63.60
4374;DHT22;2201;51.100;6.814;2023-07-13T13:47:47;29.00;64.40
4374;DHT22;2201;51.100;6.814;2023-07-13T13:50:16;28.70;65.70
4374;DHT22;2201;51.100;6.814;2023-07-13T13:52:44;28.70;66.00
4374;DHT22;2201;51.100;6.814;2023-07-13T13:55:18;28.80;66.20
4374;DHT22;2201;51.100;6.814;2023-07-13T13:57:47;29.00;65.40
4374;DHT22;2201;51.100;6.814;2023-07-13T14:00:17;29.30;64.90
4374;DHT22;2201;51.100;6.814;2023-07-13T14:02:46;29.60;63.10
4374;DHT22;2201;51.100;6.814;2023-07-13T14:05:20;29.90;62.20
4374;DHT22;2201;51.100;6.814;2023-07-13T14:47:11;28.90;65.40
4374;DHT22;2201;51.100;6.814;2023-07-13T14:49:56;28.40;65.70
4374;DHT22;2201;51.100;6.814;2023-07-13T14:52:31;28.10;65.80
4374;DHT22;2201;51.100;6.814;2023-07-13T14:55:10;27.80;66.40
4374;DHT22;2201;51.100;6.814;2023-07-13T14:57:44;27.50;66.90
4374;DHT22;2201;51.100;6.814;2023-07-13T15:00:15;27.20;67.30
4374;DHT22;2201;51.100;6.814;2023-07-13T15:06:28;26.70;67.40
4374;DHT22;2201;51.100;6.814;2023-07-13T15:09:07;26.50;68.40
4374;DHT22;2201;51.100;6.814;2023-07-13T15:12:01;26.30;68.60
4374;DHT22;2201;51.100;6.814;2023-07-13T15:14:47;26.20;69.00
4374;DHT22;2201;51.100;6.814;2023-07-13T15:17:30;26.00;71.90
4374;DHT22;2201;51.100;6.814;2023-07-13T15:20:50;25.60;75.20
4374;DHT22;2201;51.100;6.814;2023-07-13T15:23:18;25.10;76.20
4374;DHT22;2201;51.100;6.814;2023-07-13T15:25:56;24.90;77.20
4374;DHT22;2201;51.100;6.814;2023-07-13T15:28:26;24.70;77.60
4374;DHT22;2201;51.100;6.814;2023-07-13T15:30:55;24.60;78.00
4374;DHT22;2201;51.100;6.814;2023-07-13T15:33:46;24.40;78.60
4374;DHT22;2201;51.100;6.814;2023-07-13T15:36:26;24.10;79.30
4374;DHT22;2201;51.100;6.814;2023-07-13T15:38:54;24.00;79.80
4374;DHT22;2201;51.100;6.814;2023-07-13T15:41:27;23.80;80.80
4374;DHT22;2201;51.100;6.814;2023-07-13T15:44:18;23.80;80.70
4374;DHT22;2201;51.100;6.814;2023-07-13T15:46:49;23.70;81.40
4374;DHT22;2201;51.100;6.814;2023-07-13T15:49:17;23.60;81.60
4374;DHT22;2201;51.100;6.814;2023-07-13T15:54:49;23.60;81.60
4374;DHT22;2201;51.100;6.814;2023-07-13T15:57:18;23.60;81.70
4374;DHT22;2201;51.100;6.814;2023-07-13T15:59:48;23.50;81.90
4374;DHT22;2201;51.100;6.814;2023-07-13T16:02:18;23.50;82.00
4374;DHT22;2201;51.100;6.814;2023-07-13T16:04:49;23.60;81.80
4374;DHT22;2201;51.100;6.814;2023-07-13T16:07:21;23.60;81.90
4374;DHT22;2201;51.100;6.814;2023-07-13T16:09:55;23.60;82.50
4374;DHT22;2201;51.100;6.814;2023-07-13T16:12:36;23.60;80.80
4374;DHT22;2201;51.100;6.814;2023-07-13T16:15:15;23.50;80.80
4374;DHT22;2201;51.100;6.814;2023-07-13T16:17:54;23.40;81.10
4374;DHT22;2201;51.100;6.814;2023-07-13T16:20:35;23.40;81.20
4374;DHT22;2201;51.100;6.814;2023-07-13T16:23:04;23.40;81.00
4374;DHT22;2201;51.100;6.814;2023-07-13T16:25:49;23.50;80.70
4374;DHT22;2201;51.100;6.814;2023-07-13T16:28:17;23.50;80.50
4374;DHT22;2201;51.100;6.814;2023-07-13T16:30:59;23.50;80.10
4374;DHT22;2201;51.100;6.814;2023-07-13T16:36:30;23.40;79.90
4374;DHT22;2201;51.100;6.814;2023-07-13T16:39:12;23.30;80.00
4374;DHT22;2201;51.100;6.814;2023-07-13T16:45:13;23.30;80.10
4374;DHT22;2201;51.100;6.814;2023-07-13T16:47:42;23.20;80.40
4374;DHT22;2201;51.100;6.814;2023-07-13T16:50:25;23.20;80.60
4374;DHT22;2201;51.100;6.814;2023-07-13T16:53:10;23.20;80.10
4374;DHT22;2201;51.100;6.814;2023-07-13T16:55:46;23.20;81.10
4374;DHT22;2201;51.100;6.814;2023-07-13T16:58:39;23.00;80.50
4374;DHT22;2201;51.100;6.814;2023-07-13T17:04:50;23.10;81.20
4374;DHT22;2201;51.100;6.814;2023-07-13T17:07:26;23.20;80.90
4374;DHT22;2201;51.100;6.814;2023-07-13T17:10:17;23.20;80.60
4374;DHT22;2201;51.100;6.814;2023-07-13T17:13:02;23.20;80.80
4374;DHT22;2201;51.100;6.814;2023-07-13T17:15:46;23.10;80.60
4374;DHT22;2201;51.100;6.814;2023-07-13T17:18:29;23.20;80.90
4374;DHT22;2201;51.100;6.814;2023-07-13T17:21:19;23.20;80.50
4374;DHT22;2201;51.100;6.814;2023-07-13T17:23:50;23.10;80.30
4374;DHT22;2201;51.100;6.814;2023-07-13T17:26:30;23.20;80.40
4374;DHT22;2201;51.100;6.814;2023-07-13T17:29:13;23.20;79.80
4374;DHT22;2201;51.100;6.814;2023-07-13T17:31:46;23.20;79.60
4374;DHT22;2201;51.100;6.814;2023-07-13T17:34:16;23.20;80.00
4374;DHT22;2201;51.100;6.814;2023-07-13T17:37:07;23.20;79.30